Schedule Details

Flight Number: ASXVIP9X
Departure: Katowice Pyrzowice (EPKT) at 12:00
Arrival: Gdansk im. Lecha Walesy (EPGD) at 13:30
Route: ARRAY

Weather Information
EPKT 272300Z VRB01KT CAVOK 17/11 Q1022
EPGD 272300Z 06004KT 020V110 CAVOK 16/15 Q1025

Schedule Frequency

Route Map